createdAt,value
2019-05-10T00:09:17.592Z,0.00
2019-05-10T00:24:17.786Z,0.00
2019-05-10T00:39:19.495Z,0.00
2019-05-10T00:54:20.517Z,0.00
2019-05-10T01:09:20.630Z,0.00
2019-05-10T01:24:20.795Z,0.00
2019-05-10T01:39:21.271Z,0.00
2019-05-10T01:54:21.754Z,0.00
2019-05-10T02:09:27.541Z,0.00
2019-05-10T02:24:29.701Z,0.00
2019-05-10T02:39:32.836Z,0.00
2019-05-10T02:54:36.969Z,0.00
2019-05-10T03:09:37.408Z,24.00
2019-05-10T03:24:37.754Z,92.00
2019-05-10T03:39:37.828Z,220.00
2019-05-10T03:54:38.007Z,472.00
2019-05-10T04:09:38.136Z,772.00
2019-05-10T04:24:38.286Z,1300.00
2019-05-10T04:39:38.520Z,1792.00
2019-05-10T04:54:38.665Z,2620.00
2019-05-10T05:09:38.823Z,2776.00
2019-05-10T05:24:38.972Z,3500.00
2019-05-10T05:39:39.072Z,5536.00
2019-05-10T05:54:39.203Z,7140.00
2019-05-10T06:09:39.510Z,6560.00
2019-05-10T06:24:39.674Z,4996.00
2019-05-10T06:39:39.847Z,5504.00
2019-05-10T06:54:40.069Z,7784.00
2019-05-10T07:10:01.077Z,9248.00
2019-05-10T07:24:45.374Z,8664.00
2019-05-10T07:39:45.595Z,10588.00
2019-05-10T07:54:47.815Z,11944.00
2019-05-10T08:09:48.754Z,21696.00
2019-05-10T08:24:52.702Z,11376.00
2019-05-10T08:39:56.125Z,16256.00
2019-05-10T08:54:56.446Z,18912.00
2019-05-10T09:09:56.755Z,9236.00
2019-05-10T09:24:56.955Z,12112.00
2019-05-10T09:40:05.966Z,2440.00
2019-05-10T09:55:04.061Z,9040.00
2019-05-10T10:10:12.858Z,4184.00
2019-05-10T10:25:14.080Z,12216.00
2019-05-10T10:40:17.719Z,12280.00
2019-05-10T10:55:18.774Z,18688.00
2019-05-10T11:10:21.609Z,23712.00
2019-05-10T11:25:22.709Z,30176.00
2019-05-10T11:40:29.783Z,14496.00
2019-05-10T11:55:28.040Z,25120.00
2019-05-10T12:10:28.148Z,15444.00
2019-05-10T12:25:47.212Z,14556.00
2019-05-10T12:40:33.713Z,15040.00
2019-05-10T12:55:33.810Z,4552.00
2019-05-10T13:10:37.251Z,6584.00
2019-05-10T13:25:39.157Z,16736.00
2019-05-10T13:40:45.592Z,25984.00
2019-05-10T13:55:44.567Z,19296.00
2019-05-10T14:10:44.654Z,17952.00
2019-05-10T14:25:44.793Z,24448.00
2019-05-10T14:40:44.877Z,9156.00
2019-05-10T14:55:45.043Z,7988.00
2019-05-10T15:10:45.186Z,19200.00
2019-05-10T15:25:56.432Z,8516.00
2019-05-10T15:40:50.394Z,13824.00
2019-05-10T15:55:50.601Z,6888.00
2019-05-10T16:10:50.747Z,6768.00
2019-05-10T16:25:50.868Z,5460.00
2019-05-10T16:40:57.980Z,4408.00
2019-05-10T16:55:56.117Z,3944.00
2019-05-10T17:11:15.431Z,3712.00
2019-05-10T17:26:15.534Z,2604.00
2019-05-10T17:41:19.438Z,2684.00
2019-05-10T17:56:20.814Z,1788.00
2019-05-10T18:11:20.950Z,1256.00
2019-05-10T18:26:21.115Z,752.00
2019-05-10T18:41:21.300Z,296.00
2019-05-10T18:56:25.483Z,88.00
2019-05-10T19:11:26.565Z,16.00
2019-05-10T19:26:31.606Z,4.00
2019-05-10T19:41:31.865Z,0.00
2019-05-10T19:56:37.067Z,0.00
2019-05-10T20:11:37.400Z,0.00
2019-05-10T20:26:37.592Z,0.00
2019-05-10T20:41:37.835Z,0.00
2019-05-10T20:56:37.939Z,0.00
2019-05-10T21:11:38.229Z,0.00
2019-05-10T21:26:38.577Z,0.00
2019-05-10T21:41:38.797Z,0.00
2019-05-10T21:56:39.041Z,0.00
2019-05-10T22:11:39.258Z,0.00
2019-05-10T22:26:39.466Z,0.00
2019-05-10T22:41:39.589Z,0.00
2019-05-10T22:56:39.785Z,0.00
2019-05-10T23:11:40.129Z,0.00
2019-05-10T23:26:40.285Z,0.00
2019-05-10T23:41:40.441Z,0.00
2019-05-10T23:56:40.690Z,0.00
